sensor_id;sensor_type;location;lat;lon;timestamp;temperature;humidity
15288;DHT22;7745;48.708;9.026;2024-03-08T00:00:21;3.30;99.90
15288;DHT22;7745;48.708;9.026;2024-03-08T00:02:48;3.20;99.90
15288;DHT22;7745;48.708;9.026;2024-03-08T00:05:16;3.20;99.90
15288;DHT22;7745;48.708;9.026;2024-03-08T00:07:43;3.20;99.90
15288;DHT22;7745;48.708;9.026;2024-03-08T00:10:11;3.30;99.90
15288;DHT22;7745;48.708;9.026;2024-03-08T00:12:38;3.10;99.90
15288;DHT22;7745;48.708;9.026;2024-03-08T00:15:08;3.10;99.90
15288;DHT22;7745;48.708;9.026;2024-03-08T00:17:36;3.10;99.90
15288;DHT22;7745;48.708;9.026;2024-03-08T00:20:04;3.10;99.90
15288;DHT22;7745;48.708;9.026;2024-03-08T00:22:33;3.10;99.90
15288;DHT22;7745;48.708;9.026;2024-03-08T00:25:01;3.10;99.90
15288;DHT22;7745;48.708;9.026;2024-03-08T00:27:28;3.00;99.90
15288;DHT22;7745;48.708;9.026;2024-03-08T00:29:56;3.00;99.90
15288;DHT22;7745;48.708;9.026;2024-03-08T00:32:23;3.00;99.90
15288;DHT22;7745;48.708;9.026;2024-03-08T00:34:52;3.00;99.90
15288;DHT22;7745;48.708;9.026;2024-03-08T00:37:18;3.00;99.90
15288;DHT22;7745;48.708;9.026;2024-03-08T00:39:45;2.90;99.90
15288;DHT22;7745;48.708;9.026;2024-03-08T00:42:12;2.90;99.90
15288;DHT22;7745;48.708;9.026;2024-03-08T00:44:39;2.90;99.90
15288;DHT22;7745;48.708;9.026;2024-03-08T00:47:06;2.90;99.90
15288;DHT22;7745;48.708;9.026;2024-03-08T00:49:32;2.80;99.90
15288;DHT22;7745;48.708;9.026;2024-03-08T00:52:00;2.80;99.90
15288;DHT22;7745;48.708;9.026;2024-03-08T00:54:27;2.80;99.90
15288;DHT22;7745;48.708;9.026;2024-03-08T00:56:55;2.80;99.90
15288;DHT22;7745;48.708;9.026;2024-03-08T00:59:22;2.70;99.90
15288;DHT22;7745;48.708;9.026;2024-03-08T01:01:49;2.70;99.90
15288;DHT22;7745;48.708;9.026;2024-03-08T01:04:16;2.70;99.90
15288;DHT22;7745;48.708;9.026;2024-03-08T01:06:43;2.70;99.90
15288;DHT22;7745;48.708;9.026;2024-03-08T01:09:12;2.70;99.90
15288;DHT22;7745;48.708;9.026;2024-03-08T01:11:39;2.70;99.90
15288;DHT22;7745;48.708;9.026;2024-03-08T01:14:07;2.70;99.90
15288;DHT22;7745;48.708;9.026;2024-03-08T01:16:34;2.60;99.90
15288;DHT22;7745;48.708;9.026;2024-03-08T01:19:01;2.60;99.90
15288;DHT22;7745;48.708;9.026;2024-03-08T01:21:29;2.60;99.90
15288;DHT22;7745;48.708;9.026;2024-03-08T01:23:56;2.60;99.90
15288;DHT22;7745;48.708;9.026;2024-03-08T01:26:24;2.60;99.90
15288;DHT22;7745;48.708;9.026;2024-03-08T01:28:50;2.60;99.90
15288;DHT22;7745;48.708;9.026;2024-03-08T01:31:17;2.50;99.90
15288;DHT22;7745;48.708;9.026;2024-03-08T01:33:44;2.50;99.90
15288;DHT22;7745;48.708;9.026;2024-03-08T01:36:11;2.40;99.90
15288;DHT22;7745;48.708;9.026;2024-03-08T01:38:40;2.90;99.90
15288;DHT22;7745;48.708;9.026;2024-03-08T01:41:07;2.40;99.90
15288;DHT22;7745;48.708;9.026;2024-03-08T01:43:35;2.40;99.90
15288;DHT22;7745;48.708;9.026;2024-03-08T01:46:03;2.40;99.90
15288;DHT22;7745;48.708;9.026;2024-03-08T01:48:30;2.40;99.90
15288;DHT22;7745;48.708;9.026;2024-03-08T01:50:57;2.40;99.90
15288;DHT22;7745;48.708;9.026;2024-03-08T01:53:26;2.30;99.90
15288;DHT22;7745;48.708;9.026;2024-03-08T01:55:56;2.30;99.90
15288;DHT22;7745;48.708;9.026;2024-03-08T01:58:24;2.30;99.90
15288;DHT22;7745;48.708;9.026;2024-03-08T02:00:56;2.30;99.90
15288;DHT22;7745;48.708;9.026;2024-03-08T02:03:23;2.30;99.90
15288;DHT22;7745;48.708;9.026;2024-03-08T02:05:50;2.70;99.90
15288;DHT22;7745;48.708;9.026;2024-03-08T02:08:18;2.30;99.90
15288;DHT22;7745;48.708;9.026;2024-03-08T02:10:48;2.20;99.90
15288;DHT22;7745;48.708;9.026;2024-03-08T02:13:14;2.20;99.90
15288;DHT22;7745;48.708;9.026;2024-03-08T02:15:52;2.20;99.90
15288;DHT22;7745;48.708;9.026;2024-03-08T02:18:20;2.20;99.90
15288;DHT22;7745;48.708;9.026;2024-03-08T02:20:49;2.10;99.90
15288;DHT22;7745;48.708;9.026;2024-03-08T02:23:16;2.20;99.90
15288;DHT22;7745;48.708;9.026;2024-03-08T02:25:43;2.10;99.90
15288;DHT22;7745;48.708;9.026;2024-03-08T02:28:10;2.10;99.90
15288;DHT22;7745;48.708;9.026;2024-03-08T02:30:37;2.00;99.90
15288;DHT22;7745;48.708;9.026;2024-03-08T02:33:04;1.90;99.90
15288;DHT22;7745;48.708;9.026;2024-03-08T02:35:31;2.00;99.90
15288;DHT22;7745;48.708;9.026;2024-03-08T02:37:59;2.00;99.90
15288;DHT22;7745;48.708;9.026;2024-03-08T02:40:26;2.00;99.90
15288;DHT22;7745;48.708;9.026;2024-03-08T02:42:53;2.00;99.90
15288;DHT22;7745;48.708;9.026;2024-03-08T02:45:20;1.90;99.90
15288;DHT22;7745;48.708;9.026;2024-03-08T02:47:47;1.90;99.90
15288;DHT22;7745;48.708;9.026;2024-03-08T02:50:15;1.90;99.90
15288;DHT22;7745;48.708;9.026;2024-03-08T02:52:42;1.90;99.90
15288;DHT22;7745;48.708;9.026;2024-03-08T02:55:10;1.90;99.90
15288;DHT22;7745;48.708;9.026;2024-03-08T02:57:40;1.90;99.90
15288;DHT22;7745;48.708;9.026;2024-03-08T03:00:08;1.80;99.90
15288;DHT22;7745;48.708;9.026;2024-03-08T03:02:35;1.80;99.90
15288;DHT22;7745;48.708;9.026;2024-03-08T03:05:03;1.80;99.90
15288;DHT22;7745;48.708;9.026;2024-03-08T03:07:31;1.70;99.90
15288;DHT22;7745;48.708;9.026;2024-03-08T03:09:58;1.70;99.90
15288;DHT22;7745;48.708;9.026;2024-03-08T03:12:27;1.70;99.90
15288;DHT22;7745;48.708;9.026;2024-03-08T03:14:54;1.70;99.90
15288;DHT22;7745;48.708;9.026;2024-03-08T03:17:22;1.70;99.90
15288;DHT22;7745;48.708;9.026;2024-03-08T03:19:48;1.70;99.90
15288;DHT22;7745;48.708;9.026;2024-03-08T03:22:15;1.70;99.90
15288;DHT22;7745;48.708;9.026;2024-03-08T03:24:42;1.60;99.90
15288;DHT22;7745;48.708;9.026;2024-03-08T03:27:09;1.60;99.90
15288;DHT22;7745;48.708;9.026;2024-03-08T03:29:38;1.60;99.90
15288;DHT22;7745;48.708;9.026;2024-03-08T03:32:05;1.60;99.90
15288;DHT22;7745;48.708;9.026;2024-03-08T03:34:33;1.60;99.90
15288;DHT22;7745;48.708;9.026;2024-03-08T03:37:01;1.60;99.90
15288;DHT22;7745;48.708;9.026;2024-03-08T03:39:28;1.60;99.90
15288;DHT22;7745;48.708;9.026;2024-03-08T03:41:57;1.50;99.90
15288;DHT22;7745;48.708;9.026;2024-03-08T03:44:24;1.50;99.90
15288;DHT22;7745;48.708;9.026;2024-03-08T03:46:52;1.50;99.90
15288;DHT22;7745;48.708;9.026;2024-03-08T03:49:19;1.50;99.90
15288;DHT22;7745;48.708;9.026;2024-03-08T03:51:46;1.50;99.90
15288;DHT22;7745;48.708;9.026;2024-03-08T03:54:13;1.50;99.90
15288;DHT22;7745;48.708;9.026;2024-03-08T03:56:40;1.40;99.90
15288;DHT22;7745;48.708;9.026;2024-03-08T03:59:06;1.50;99.90
15288;DHT22;7745;48.708;9.026;2024-03-08T04:01:33;1.40;99.90
15288;DHT22;7745;48.708;9.026;2024-03-08T04:04:02;1.40;99.90
15288;DHT22;7745;48.708;9.026;2024-03-08T04:06:28;1.40;99.90
15288;DHT22;7745;48.708;9.026;2024-03-08T04:08:55;1.40;99.90
15288;DHT22;7745;48.708;9.026;2024-03-08T04:11:22;1.40;99.90
15288;DHT22;7745;48.708;9.026;2024-03-08T04:13:49;1.30;99.90
15288;DHT22;7745;48.708;9.026;2024-03-08T04:16:15;1.30;99.90
15288;DHT22;7745;48.708;9.026;2024-03-08T04:18:44;1.30;99.90
15288;DHT22;7745;48.708;9.026;2024-03-08T04:21:12;1.30;99.90
15288;DHT22;7745;48.708;9.026;2024-03-08T04:23:39;1.20;99.90
15288;DHT22;7745;48.708;9.026;2024-03-08T04:26:05;1.20;99.90
15288;DHT22;7745;48.708;9.026;2024-03-08T04:28:34;1.20;99.90
15288;DHT22;7745;48.708;9.026;2024-03-08T04:31:03;1.20;99.90
15288;DHT22;7745;48.708;9.026;2024-03-08T04:33:29;1.20;99.90
15288;DHT22;7745;48.708;9.026;2024-03-08T04:35:56;1.20;99.90
15288;DHT22;7745;48.708;9.026;2024-03-08T04:38:24;1.20;99.90
15288;DHT22;7745;48.708;9.026;2024-03-08T04:40:51;1.10;99.90
15288;DHT22;7745;48.708;9.026;2024-03-08T04:43:19;1.10;99.90
15288;DHT22;7745;48.708;9.026;2024-03-08T04:45:46;1.10;99.90
15288;DHT22;7745;48.708;9.026;2024-03-08T04:48:14;1.10;99.90
15288;DHT22;7745;48.708;9.026;2024-03-08T04:50:41;1.10;99.90
15288;DHT22;7745;48.708;9.026;2024-03-08T04:53:07;1.10;99.90
15288;DHT22;7745;48.708;9.026;2024-03-08T04:55:36;1.10;99.90
15288;DHT22;7745;48.708;9.026;2024-03-08T04:58:03;1.00;99.90
15288;DHT22;7745;48.708;9.026;2024-03-08T05:00:31;1.00;99.90
15288;DHT22;7745;48.708;9.026;2024-03-08T05:02:58;1.00;99.90
15288;DHT22;7745;48.708;9.026;2024-03-08T05:05:25;1.00;99.90
15288;DHT22;7745;48.708;9.026;2024-03-08T05:07:53;1.00;99.90
15288;DHT22;7745;48.708;9.026;2024-03-08T05:10:20;1.00;99.90
15288;DHT22;7745;48.708;9.026;2024-03-08T05:12:49;1.00;99.90
15288;DHT22;7745;48.708;9.026;2024-03-08T05:15:16;1.00;99.90
15288;DHT22;7745;48.708;9.026;2024-03-08T05:17:42;0.90;99.90
15288;DHT22;7745;48.708;9.026;2024-03-08T05:20:10;0.90;99.90
15288;DHT22;7745;48.708;9.026;2024-03-08T05:22:39;0.90;99.90
15288;DHT22;7745;48.708;9.026;2024-03-08T05:25:06;0.90;99.90
15288;DHT22;7745;48.708;9.026;2024-03-08T05:27:34;0.90;99.90
15288;DHT22;7745;48.708;9.026;2024-03-08T05:30:03;0.80;99.90
15288;DHT22;7745;48.708;9.026;2024-03-08T05:32:30;0.80;99.90
15288;DHT22;7745;48.708;9.026;2024-03-08T05:34:57;0.80;99.90
15288;DHT22;7745;48.708;9.026;2024-03-08T05:37:24;0.80;99.90
15288;DHT22;7745;48.708;9.026;2024-03-08T05:39:50;0.80;99.90
15288;DHT22;7745;48.708;9.026;2024-03-08T05:42:17;0.80;99.90
15288;DHT22;7745;48.708;9.026;2024-03-08T05:44:44;0.80;99.90
15288;DHT22;7745;48.708;9.026;2024-03-08T05:47:12;0.70;99.90
15288;DHT22;7745;48.708;9.026;2024-03-08T05:49:39;0.70;99.90
15288;DHT22;7745;48.708;9.026;2024-03-08T05:52:06;0.70;99.90
15288;DHT22;7745;48.708;9.026;2024-03-08T05:54:33;0.70;99.90
15288;DHT22;7745;48.708;9.026;2024-03-08T05:57:00;0.70;99.90
15288;DHT22;7745;48.708;9.026;2024-03-08T05:59:26;0.70;99.90
15288;DHT22;7745;48.708;9.026;2024-03-08T06:01:53;0.70;99.90
15288;DHT22;7745;48.708;9.026;2024-03-08T06:04:21;0.70;99.90
15288;DHT22;7745;48.708;9.026;2024-03-08T06:06:48;0.70;99.90
15288;DHT22;7745;48.708;9.026;2024-03-08T06:09:17;0.70;99.90
15288;DHT22;7745;48.708;9.026;2024-03-08T06:11:48;0.70;99.90
15288;DHT22;7745;48.708;9.026;2024-03-08T06:14:15;0.80;99.90
15288;DHT22;7745;48.708;9.026;2024-03-08T06:16:44;0.80;99.90
15288;DHT22;7745;48.708;9.026;2024-03-08T06:19:10;0.80;99.90
15288;DHT22;7745;48.708;9.026;2024-03-08T06:21:39;0.80;99.90
15288;DHT22;7745;48.708;9.026;2024-03-08T06:24:07;0.80;99.90
15288;DHT22;7745;48.708;9.026;2024-03-08T06:26:33;0.90;99.90
15288;DHT22;7745;48.708;9.026;2024-03-08T06:29:01;0.90;99.90
15288;DHT22;7745;48.708;9.026;2024-03-08T06:31:28;1.00;99.90
15288;DHT22;7745;48.708;9.026;2024-03-08T06:33:55;1.10;99.90
15288;DHT22;7745;48.708;9.026;2024-03-08T06:36:21;1.10;99.90
15288;DHT22;7745;48.708;9.026;2024-03-08T06:38:50;1.20;99.90
15288;DHT22;7745;48.708;9.026;2024-03-08T06:41:17;1.30;99.90
15288;DHT22;7745;48.708;9.026;2024-03-08T06:43:44;1.30;99.90
15288;DHT22;7745;48.708;9.026;2024-03-08T06:46:11;1.40;99.90
15288;DHT22;7745;48.708;9.026;2024-03-08T06:48:38;1.40;99.90
15288;DHT22;7745;48.708;9.026;2024-03-08T06:51:05;1.50;99.90
15288;DHT22;7745;48.708;9.026;2024-03-08T06:53:32;1.50;99.90
15288;DHT22;7745;48.708;9.026;2024-03-08T06:56:02;1.60;99.90
15288;DHT22;7745;48.708;9.026;2024-03-08T06:58:29;1.60;99.90
15288;DHT22;7745;48.708;9.026;2024-03-08T07:00:55;1.70;99.90
15288;DHT22;7745;48.708;9.026;2024-03-08T07:03:25;1.80;99.90
15288;DHT22;7745;48.708;9.026;2024-03-08T07:05:56;1.80;99.90
15288;DHT22;7745;48.708;9.026;2024-03-08T07:08:23;1.90;99.90
15288;DHT22;7745;48.708;9.026;2024-03-08T07:10:52;1.90;99.90
15288;DHT22;7745;48.708;9.026;2024-03-08T07:13:20;2.00;99.90
15288;DHT22;7745;48.708;9.026;2024-03-08T07:15:47;2.20;99.90
15288;DHT22;7745;48.708;9.026;2024-03-08T07:18:15;2.10;99.90
15288;DHT22;7745;48.708;9.026;2024-03-08T07:20:42;2.10;99.90
15288;DHT22;7745;48.708;9.026;2024-03-08T07:23:10;2.10;99.90
15288;DHT22;7745;48.708;9.026;2024-03-08T07:26:00;2.30;99.90
15288;DHT22;7745;48.708;9.026;2024-03-08T07:28:30;2.40;99.90
15288;DHT22;7745;48.708;9.026;2024-03-08T07:30:58;2.50;99.90
15288;DHT22;7745;48.708;9.026;2024-03-08T07:33:39;2.30;99.90
15288;DHT22;7745;48.708;9.026;2024-03-08T07:36:06;2.40;99.90
15288;DHT22;7745;48.708;9.026;2024-03-08T07:38:32;2.50;99.90
15288;DHT22;7745;48.708;9.026;2024-03-08T07:41:00;2.50;99.90
15288;DHT22;7745;48.708;9.026;2024-03-08T07:43:28;2.50;99.90
15288;DHT22;7745;48.708;9.026;2024-03-08T07:45:55;2.50;99.90
15288;DHT22;7745;48.708;9.026;2024-03-08T07:48:21;2.60;99.90
15288;DHT22;7745;48.708;9.026;2024-03-08T07:50:48;2.70;99.90
15288;DHT22;7745;48.708;9.026;2024-03-08T07:53:16;2.60;99.90
15288;DHT22;7745;48.708;9.026;2024-03-08T07:55:48;2.70;99.90
15288;DHT22;7745;48.708;9.026;2024-03-08T07:58:15;2.50;99.90
15288;DHT22;7745;48.708;9.026;2024-03-08T08:00:44;3.40;99.90
15288;DHT22;7745;48.708;9.026;2024-03-08T08:03:23;3.00;99.90
15288;DHT22;7745;48.708;9.026;2024-03-08T08:05:53;3.50;99.90
15288;DHT22;7745;48.708;9.026;2024-03-08T08:08:20;3.10;99.90
15288;DHT22;7745;48.708;9.026;2024-03-08T08:10:48;3.10;99.90
15288;DHT22;7745;48.708;9.026;2024-03-08T08:13:15;3.00;99.90
15288;DHT22;7745;48.708;9.026;2024-03-08T08:15:44;3.00;99.90
15288;DHT22;7745;48.708;9.026;2024-03-08T08:18:11;3.10;99.90
15288;DHT22;7745;48.708;9.026;2024-03-08T08:20:39;3.10;99.90
15288;DHT22;7745;48.708;9.026;2024-03-08T08:23:06;3.20;99.90
15288;DHT22;7745;48.708;9.026;2024-03-08T08:25:34;3.20;99.90
15288;DHT22;7745;48.708;9.026;2024-03-08T08:28:01;3.90;99.90
15288;DHT22;7745;48.708;9.026;2024-03-08T08:30:29;3.30;99.90
15288;DHT22;7745;48.708;9.026;2024-03-08T08:32:59;3.30;99.90
15288;DHT22;7745;48.708;9.026;2024-03-08T08:35:26;3.30;99.90
15288;DHT22;7745;48.708;9.026;2024-03-08T08:37:54;3.40;99.90
15288;DHT22;7745;48.708;9.026;2024-03-08T08:40:21;3.40;99.90
15288;DHT22;7745;48.708;9.026;2024-03-08T08:42:48;3.50;99.90
15288;DHT22;7745;48.708;9.026;2024-03-08T08:45:15;3.50;99.90
15288;DHT22;7745;48.708;9.026;2024-03-08T08:47:48;3.50;99.90
15288;DHT22;7745;48.708;9.026;2024-03-08T08:50:16;3.50;99.90
15288;DHT22;7745;48.708;9.026;2024-03-08T08:52:48;3.60;99.90
15288;DHT22;7745;48.708;9.026;2024-03-08T08:55:19;3.50;99.90
15288;DHT22;7745;48.708;9.026;2024-03-08T08:57:50;3.50;99.90
15288;DHT22;7745;48.708;9.026;2024-03-08T09:00:18;3.50;99.90
15288;DHT22;7745;48.708;9.026;2024-03-08T09:02:46;3.50;99.90
15288;DHT22;7745;48.708;9.026;2024-03-08T09:05:13;3.60;99.90
15288;DHT22;7745;48.708;9.026;2024-03-08T09:07:43;3.60;99.90
15288;DHT22;7745;48.708;9.026;2024-03-08T09:10:11;3.70;99.90
15288;DHT22;7745;48.708;9.026;2024-03-08T09:12:39;3.80;99.90
15288;DHT22;7745;48.708;9.026;2024-03-08T09:15:07;3.80;99.90
15288;DHT22;7745;48.708;9.026;2024-03-08T09:17:36;3.80;99.90
15288;DHT22;7745;48.708;9.026;2024-03-08T09:20:06;3.90;99.90
15288;DHT22;7745;48.708;9.026;2024-03-08T09:22:34;3.90;99.90
15288;DHT22;7745;48.708;9.026;2024-03-08T09:25:02;3.90;99.90
15288;DHT22;7745;48.708;9.026;2024-03-08T09:27:31;3.90;99.90
15288;DHT22;7745;48.708;9.026;2024-03-08T09:29:58;4.00;99.90
15288;DHT22;7745;48.708;9.026;2024-03-08T09:32:24;4.30;99.90
15288;DHT22;7745;48.708;9.026;2024-03-08T09:34:52;4.30;99.90
15288;DHT22;7745;48.708;9.026;2024-03-08T09:37:26;4.00;99.90
15288;DHT22;7745;48.708;9.026;2024-03-08T09:40:07;4.00;99.90
15288;DHT22;7745;48.708;9.026;2024-03-08T09:42:40;4.00;99.90
15288;DHT22;7745;48.708;9.026;2024-03-08T09:45:09;4.10;99.90
15288;DHT22;7745;48.708;9.026;2024-03-08T09:47:38;4.10;99.90
15288;DHT22;7745;48.708;9.026;2024-03-08T09:50:07;4.60;99.90
15288;DHT22;7745;48.708;9.026;2024-03-08T09:52:35;4.30;99.90
15288;DHT22;7745;48.708;9.026;2024-03-08T09:55:05;4.40;99.90
15288;DHT22;7745;48.708;9.026;2024-03-08T09:57:35;4.50;99.90
15288;DHT22;7745;48.708;9.026;2024-03-08T10:00:03;4.50;99.90
15288;DHT22;7745;48.708;9.026;2024-03-08T10:02:37;4.50;99.90
15288;DHT22;7745;48.708;9.026;2024-03-08T10:05:04;4.60;99.90
15288;DHT22;7745;48.708;9.026;2024-03-08T10:07:31;4.60;99.90
15288;DHT22;7745;48.708;9.026;2024-03-08T10:09:59;4.70;99.90
15288;DHT22;7745;48.708;9.026;2024-03-08T10:12:27;4.80;99.90
15288;DHT22;7745;48.708;9.026;2024-03-08T10:14:55;4.80;99.90
15288;DHT22;7745;48.708;9.026;2024-03-08T10:17:21;4.80;99.90
15288;DHT22;7745;48.708;9.026;2024-03-08T10:19:50;4.90;99.90
15288;DHT22;7745;48.708;9.026;2024-03-08T10:22:18;5.00;99.90
15288;DHT22;7745;48.708;9.026;2024-03-08T10:24:46;5.00;99.90
15288;DHT22;7745;48.708;9.026;2024-03-08T10:27:13;5.00;99.90
15288;DHT22;7745;48.708;9.026;2024-03-08T10:29:43;5.00;99.90
15288;DHT22;7745;48.708;9.026;2024-03-08T10:32:13;5.00;99.90
15288;DHT22;7745;48.708;9.026;2024-03-08T10:34:40;5.10;99.90
15288;DHT22;7745;48.708;9.026;2024-03-08T10:37:08;5.10;99.90
15288;DHT22;7745;48.708;9.026;2024-03-08T10:39:40;5.10;99.90
15288;DHT22;7745;48.708;9.026;2024-03-08T10:42:12;5.10;99.90
15288;DHT22;7745;48.708;9.026;2024-03-08T10:44:50;5.20;99.90
15288;DHT22;7745;48.708;9.026;2024-03-08T10:47:26;5.50;99.90
15288;DHT22;7745;48.708;9.026;2024-03-08T10:50:03;5.20;99.90
15288;DHT22;7745;48.708;9.026;2024-03-08T10:52:34;5.30;99.90
15288;DHT22;7745;48.708;9.026;2024-03-08T10:55:02;5.40;99.90
15288;DHT22;7745;48.708;9.026;2024-03-08T10:57:30;5.50;99.90
15288;DHT22;7745;48.708;9.026;2024-03-08T10:59:58;5.50;99.90
15288;DHT22;7745;48.708;9.026;2024-03-08T11:02:25;5.60;99.90
15288;DHT22;7745;48.708;9.026;2024-03-08T11:04:52;5.60;99.90
15288;DHT22;7745;48.708;9.026;2024-03-08T11:07:21;5.70;99.90
15288;DHT22;7745;48.708;9.026;2024-03-08T11:09:56;5.70;99.90
15288;DHT22;7745;48.708;9.026;2024-03-08T11:12:25;5.80;99.90
15288;DHT22;7745;48.708;9.026;2024-03-08T11:14:55;6.40;99.90
15288;DHT22;7745;48.708;9.026;2024-03-08T11:17:40;6.30;99.90
15288;DHT22;7745;48.708;9.026;2024-03-08T11:20:11;6.60;99.90
15288;DHT22;7745;48.708;9.026;2024-03-08T11:22:42;6.30;99.90
15288;DHT22;7745;48.708;9.026;2024-03-08T11:25:32;6.30;99.90
15288;DHT22;7745;48.708;9.026;2024-03-08T11:28:23;6.40;99.90
15288;DHT22;7745;48.708;9.026;2024-03-08T11:31:24;6.40;99.90
15288;DHT22;7745;48.708;9.026;2024-03-08T11:34:21;6.40;99.90
15288;DHT22;7745;48.708;9.026;2024-03-08T11:37:05;6.50;99.90
15288;DHT22;7745;48.708;9.026;2024-03-08T11:39:35;6.50;99.90
15288;DHT22;7745;48.708;9.026;2024-03-08T11:42:04;6.40;99.90
15288;DHT22;7745;48.708;9.026;2024-03-08T11:44:30;6.40;99.90
15288;DHT22;7745;48.708;9.026;2024-03-08T11:46:58;6.30;99.90
15288;DHT22;7745;48.708;9.026;2024-03-08T11:49:26;6.30;99.90
15288;DHT22;7745;48.708;9.026;2024-03-08T11:51:53;6.30;99.90
15288;DHT22;7745;48.708;9.026;2024-03-08T11:54:21;6.10;99.90
15288;DHT22;7745;48.708;9.026;2024-03-08T11:56:51;6.00;99.90
15288;DHT22;7745;48.708;9.026;2024-03-08T11:59:19;6.30;99.90
15288;DHT22;7745;48.708;9.026;2024-03-08T12:02:01;6.00;99.90
15288;DHT22;7745;48.708;9.026;2024-03-08T12:04:30;5.90;99.90
15288;DHT22;7745;48.708;9.026;2024-03-08T12:06:59;6.00;99.90
15288;DHT22;7745;48.708;9.026;2024-03-08T12:09:27;6.00;99.90
15288;DHT22;7745;48.708;9.026;2024-03-08T12:11:54;6.10;99.90
15288;DHT22;7745;48.708;9.026;2024-03-08T12:14:21;6.20;99.90
15288;DHT22;7745;48.708;9.026;2024-03-08T12:16:58;6.30;99.90
15288;DHT22;7745;48.708;9.026;2024-03-08T12:19:26;6.40;99.90
15288;DHT22;7745;48.708;9.026;2024-03-08T12:21:55;6.30;99.90
15288;DHT22;7745;48.708;9.026;2024-03-08T12:24:22;6.30;99.90
15288;DHT22;7745;48.708;9.026;2024-03-08T12:26:49;6.50;99.90
15288;DHT22;7745;48.708;9.026;2024-03-08T12:29:21;6.50;99.90
15288;DHT22;7745;48.708;9.026;2024-03-08T12:31:50;6.60;99.90
15288;DHT22;7745;48.708;9.026;2024-03-08T12:34:17;6.70;99.90
15288;DHT22;7745;48.708;9.026;2024-03-08T12:36:45;6.70;99.90
15288;DHT22;7745;48.708;9.026;2024-03-08T12:39:16;6.70;99.90
15288;DHT22;7745;48.708;9.026;2024-03-08T12:41:43;6.70;99.90
15288;DHT22;7745;48.708;9.026;2024-03-08T12:44:10;6.90;99.90
15288;DHT22;7745;48.708;9.026;2024-03-08T12:46:38;6.90;99.90
15288;DHT22;7745;48.708;9.026;2024-03-08T12:49:09;7.00;99.90
15288;DHT22;7745;48.708;9.026;2024-03-08T12:51:37;7.00;99.90
15288;DHT22;7745;48.708;9.026;2024-03-08T12:54:07;6.90;99.90
15288;DHT22;7745;48.708;9.026;2024-03-08T12:56:37;6.90;99.90
15288;DHT22;7745;48.708;9.026;2024-03-08T12:59:04;7.00;99.90
15288;DHT22;7745;48.708;9.026;2024-03-08T13:01:31;6.60;99.90
15288;DHT22;7745;48.708;9.026;2024-03-08T13:03:58;6.70;99.90
15288;DHT22;7745;48.708;9.026;2024-03-08T13:06:26;6.90;99.90
15288;DHT22;7745;48.708;9.026;2024-03-08T13:08:54;7.00;99.90
15288;DHT22;7745;48.708;9.026;2024-03-08T13:11:21;6.90;99.90
15288;DHT22;7745;48.708;9.026;2024-03-08T13:13:50;6.90;99.90
15288;DHT22;7745;48.708;9.026;2024-03-08T13:16:17;7.10;99.90
15288;DHT22;7745;48.708;9.026;2024-03-08T13:18:45;7.20;99.90
15288;DHT22;7745;48.708;9.026;2024-03-08T13:21:14;7.10;99.90
15288;DHT22;7745;48.708;9.026;2024-03-08T13:23:44;7.00;99.90
15288;DHT22;7745;48.708;9.026;2024-03-08T13:26:15;7.10;99.90
15288;DHT22;7745;48.708;9.026;2024-03-08T13:28:42;7.30;99.90
15288;DHT22;7745;48.708;9.026;2024-03-08T13:31:10;7.20;99.90
15288;DHT22;7745;48.708;9.026;2024-03-08T13:33:40;7.10;99.90
15288;DHT22;7745;48.708;9.026;2024-03-08T13:36:12;7.20;99.90
15288;DHT22;7745;48.708;9.026;2024-03-08T13:38:42;7.40;99.90
15288;DHT22;7745;48.708;9.026;2024-03-08T13:41:10;7.50;99.90
15288;DHT22;7745;48.708;9.026;2024-03-08T13:43:40;7.10;99.90
15288;DHT22;7745;48.708;9.026;2024-03-08T13:46:07;7.60;99.90
15288;DHT22;7745;48.708;9.026;2024-03-08T13:48:37;7.70;99.90
15288;DHT22;7745;48.708;9.026;2024-03-08T13:51:04;7.20;99.90
15288;DHT22;7745;48.708;9.026;2024-03-08T13:53:32;7.10;99.90
15288;DHT22;7745;48.708;9.026;2024-03-08T13:56:00;7.20;99.90
15288;DHT22;7745;48.708;9.026;2024-03-08T13:58:27;7.20;99.90
15288;DHT22;7745;48.708;9.026;2024-03-08T14:00:54;7.50;99.90
15288;DHT22;7745;48.708;9.026;2024-03-08T14:03:21;7.20;99.90
15288;DHT22;7745;48.708;9.026;2024-03-08T14:05:50;7.40;99.90
15288;DHT22;7745;48.708;9.026;2024-03-08T14:08:17;7.30;99.90
15288;DHT22;7745;48.708;9.026;2024-03-08T14:10:47;7.30;99.90
15288;DHT22;7745;48.708;9.026;2024-03-08T14:13:15;7.30;99.90
15288;DHT22;7745;48.708;9.026;2024-03-08T14:15:44;7.40;99.90
15288;DHT22;7745;48.708;9.026;2024-03-08T14:18:11;7.40;99.90
15288;DHT22;7745;48.708;9.026;2024-03-08T14:20:39;7.30;99.90
15288;DHT22;7745;48.708;9.026;2024-03-08T14:23:08;7.30;99.90
15288;DHT22;7745;48.708;9.026;2024-03-08T14:25:38;7.30;99.90
15288;DHT22;7745;48.708;9.026;2024-03-08T14:28:05;7.70;99.90
15288;DHT22;7745;48.708;9.026;2024-03-08T14:30:33;7.30;99.90
15288;DHT22;7745;48.708;9.026;2024-03-08T14:33:03;7.30;99.90
15288;DHT22;7745;48.708;9.026;2024-03-08T14:35:34;7.30;99.90
15288;DHT22;7745;48.708;9.026;2024-03-08T14:38:01;7.60;99.90
15288;DHT22;7745;48.708;9.026;2024-03-08T14:40:30;7.80;99.90
15288;DHT22;7745;48.708;9.026;2024-03-08T14:42:57;7.50;99.90
15288;DHT22;7745;48.708;9.026;2024-03-08T14:45:26;7.60;99.90
15288;DHT22;7745;48.708;9.026;2024-03-08T14:47:53;7.60;99.90
15288;DHT22;7745;48.708;9.026;2024-03-08T14:50:22;7.70;99.90
15288;DHT22;7745;48.708;9.026;2024-03-08T14:52:49;7.70;99.90
15288;DHT22;7745;48.708;9.026;2024-03-08T14:55:16;7.70;99.90
15288;DHT22;7745;48.708;9.026;2024-03-08T14:57:48;7.70;99.90
15288;DHT22;7745;48.708;9.026;2024-03-08T15:00:25;7.60;99.90
15288;DHT22;7745;48.708;9.026;2024-03-08T15:02:59;7.50;99.90
15288;DHT22;7745;48.708;9.026;2024-03-08T15:05:27;7.60;99.90
15288;DHT22;7745;48.708;9.026;2024-03-08T15:08:05;7.60;99.90
15288;DHT22;7745;48.708;9.026;2024-03-08T15:10:35;7.80;99.90
15288;DHT22;7745;48.708;9.026;2024-03-08T15:13:03;7.40;99.90
15288;DHT22;7745;48.708;9.026;2024-03-08T15:15:39;7.70;99.90
15288;DHT22;7745;48.708;9.026;2024-03-08T15:18:08;7.80;99.90
15288;DHT22;7745;48.708;9.026;2024-03-08T15:20:36;7.70;99.90
15288;DHT22;7745;48.708;9.026;2024-03-08T15:23:03;7.90;99.90
15288;DHT22;7745;48.708;9.026;2024-03-08T15:25:31;7.90;99.90
15288;DHT22;7745;48.708;9.026;2024-03-08T15:28:00;7.90;99.90
15288;DHT22;7745;48.708;9.026;2024-03-08T15:30:31;7.90;99.90
15288;DHT22;7745;48.708;9.026;2024-03-08T15:32:58;7.80;99.90
15288;DHT22;7745;48.708;9.026;2024-03-08T15:35:28;7.80;99.90
15288;DHT22;7745;48.708;9.026;2024-03-08T15:37:57;7.90;99.90
15288;DHT22;7745;48.708;9.026;2024-03-08T15:40:25;7.80;99.90
15288;DHT22;7745;48.708;9.026;2024-03-08T15:42:55;7.80;99.90
15288;DHT22;7745;48.708;9.026;2024-03-08T15:45:23;7.80;99.90
15288;DHT22;7745;48.708;9.026;2024-03-08T15:47:52;7.80;99.90
15288;DHT22;7745;48.708;9.026;2024-03-08T15:50:19;7.80;99.90
15288;DHT22;7745;48.708;9.026;2024-03-08T15:52:48;7.80;99.90
15288;DHT22;7745;48.708;9.026;2024-03-08T15:55:16;7.90;99.90
15288;DHT22;7745;48.708;9.026;2024-03-08T15:57:45;7.70;99.90
15288;DHT22;7745;48.708;9.026;2024-03-08T16:00:14;7.90;99.90
15288;DHT22;7745;48.708;9.026;2024-03-08T16:02:57;7.80;99.90
15288;DHT22;7745;48.708;9.026;2024-03-08T16:05:23;7.80;99.90
15288;DHT22;7745;48.708;9.026;2024-03-08T16:07:52;8.00;99.90
15288;DHT22;7745;48.708;9.026;2024-03-08T16:10:20;7.90;99.90